Salaberry-De-Valleyfield, Canada
Current Conditions -  °F | °C
As of 6:00 PM on Saturday 25 Oct 2014 (Local Time) from CYUL Reporting Station
Light Rain Light Rain  
Wind Chill: 54°   Ceiling: 2000
Heat Index: 54°   Visibility: 8mi
Dew Point: 50°   Wind: 9mph
Humidity: 88%   Direction: 150°SSE
Pressure: 29.45"   Gusts: NA
Location:  45.25°N, 74.13°W
Report Text: CYUL 252200Z 15008KT 8SM -RA BKN020 OVC040 12/10 A2945 RMK SC6SC2 SLP975 DENSITY ALT 200FT
Loading
Personal Weather Stations






























Interactive Weather Map
Tropical Storm Tracking
New forecast layout! Learn more

10-Day Weather Forecast

Advertisements
Track Severe Weather on mobile